TimeCDT,TemperatureF,Dew PointF,Humidity,Sea Level PressureIn,VisibilityMPH,Wind Direction,Wind SpeedMPH,Gust SpeedMPH,PrecipitationIn,Events,Conditions,WindDirDegrees,DateUTC
12:53 AM,62.1,54.0,75,30.21,10.0,NNE,8.1,-,N/A,,Clear,30,2013-05-13 05:53:00
1:53 AM,59.0,53.1,81,30.21,10.0,Calm,Calm,-,N/A,,Clear,0,2013-05-13 06:53:00
2:53 AM,57.9,52.0,81,30.20,10.0,NE,4.6,-,N/A,,Clear,40,2013-05-13 07:53:00
3:53 AM,55.9,52.0,87,30.21,10.0,NNE,4.6,-,N/A,,Clear,30,2013-05-13 08:53:00
4:53 AM,54.0,51.1,90,30.22,10.0,Calm,Calm,-,N/A,,Clear,0,2013-05-13 09:53:00
5:53 AM,54.0,51.1,90,30.23,10.0,Calm,Calm,-,N/A,,Clear,0,2013-05-13 10:53:00
6:53 AM,55.9,51.1,84,30.25,10.0,NE,3.5,-,N/A,,Clear,40,2013-05-13 11:53:00
7:53 AM,61.0,53.1,75,30.28,10.0,ENE,8.1,-,N/A,,Clear,70,2013-05-13 12:53:00
8:53 AM,64.9,50.0,58,30.31,10.0,East,9.2,-,N/A,,Clear,90,2013-05-13 13:53:00
9:53 AM,69.1,48.0,47,30.32,10.0,East,10.4,-,N/A,,Clear,100,2013-05-13 14:53:00
10:34 AM,71.6,46.4,41,30.30,10.0,SE,12.7,16.1,N/A,,Clear,130,2013-05-13 15:34:00
10:53 AM,72.0,46.0,40,30.33,10.0,ESE,8.1,-,N/A,,Clear,110,2013-05-13 15:53:00
11:53 AM,73.0,45.0,37,30.32,10.0,ESE,6.9,-,N/A,,Clear,120,2013-05-13 16:53:00
12:53 PM,75.0,44.1,33,30.31,10.0,SE,5.8,-,N/A,,Clear,130,2013-05-13 17:53:00
1:53 PM,77.0,36.0,23,30.29,10.0,Variable,4.6,-,N/A,,Clear,0,2013-05-13 18:53:00
3:53 PM,79.0,44.1,29,30.26,10.0,SE,5.8,-,N/A,,Clear,140,2013-05-13 20:53:00
4:53 PM,79.0,41.0,26,30.24,10.0,Variable,4.6,-,N/A,,Clear,0,2013-05-13 21:53:00
5:53 PM,75.0,57.9,55,30.24,10.0,SW,5.8,-,N/A,,Clear,220,2013-05-13 22:53:00
6:53 PM,73.4,57.2,57,30.21,10.0,SW,6.9,-,N/A,,Clear,230,2013-05-13 23:53:00
7:53 PM,70.0,59.0,68,30.24,10.0,SW,3.5,-,N/A,,Clear,220,2013-05-14 00:53:00
8:53 PM,66.0,59.0,78,30.24,10.0,SSW,3.5,-,N/A,,Clear,200,2013-05-14 01:53:00
9:53 PM,64.0,57.9,80,30.25,10.0,Calm,Calm,-,N/A,,Clear,0,2013-05-14 02:53:00
10:53 PM,60.1,57.0,90,30.26,10.0,Calm,Calm,-,N/A,,Clear,0,2013-05-14 03:53:00
11:53 PM,60.1,57.0,90,30.26,10.0,Calm,Calm,-,N/A,,Clear,0,2013-05-14 04:53:00